createdAt,value
2019-04-03T00:01:47.043Z,100399.94
2019-04-03T00:04:16.009Z,100376.14
2019-04-03T00:06:44.988Z,100354.52
2019-04-03T00:09:13.616Z,100362.31
2019-04-03T00:11:42.564Z,100349.30
2019-04-03T00:14:12.878Z,100330.24
2019-04-03T00:16:42.100Z,100313.36
2019-04-03T00:19:10.780Z,100318.55
2019-04-03T00:21:39.936Z,100324.19
2019-04-03T00:24:09.171Z,100310.77
2019-04-03T00:26:38.609Z,100313.37
2019-04-03T00:29:07.568Z,100300.83
2019-04-03T00:31:36.278Z,100300.41
2019-04-03T00:34:05.253Z,100289.61
2019-04-03T00:36:34.314Z,100290.06
2019-04-03T00:39:03.334Z,100287.05
2019-04-03T00:41:32.231Z,100277.52
2019-04-03T00:44:01.225Z,100264.57
2019-04-03T00:46:30.505Z,100277.95
2019-04-03T00:48:59.095Z,100292.24
2019-04-03T00:51:28.099Z,100290.95
2019-04-03T00:53:57.971Z,100293.57
2019-04-03T00:56:27.523Z,100305.23
2019-04-03T00:58:56.150Z,100312.18
2019-04-03T01:01:26.549Z,100306.97
2019-04-03T01:03:56.860Z,100306.97
2019-04-03T01:06:26.693Z,100311.73
2019-04-03T01:08:59.411Z,100306.11
2019-04-03T01:11:30.784Z,100301.80
2019-04-03T01:14:01.110Z,100306.56
2019-04-03T01:16:32.293Z,100302.66
2019-04-03T01:19:00.807Z,100304.39
2019-04-03T01:21:29.417Z,100311.30
2019-04-03T01:23:58.029Z,100318.23
2019-04-03T01:26:27.020Z,100321.70
2019-04-03T01:28:56.072Z,100329.05
2019-04-03T01:31:24.675Z,100333.38
2019-04-03T01:33:53.331Z,100320.41
2019-04-03T01:36:22.258Z,100323.41
2019-04-03T01:38:51.168Z,100317.78
2019-04-03T01:41:21.511Z,100310.44
2019-04-03T01:43:53.068Z,100309.55
2019-04-03T01:46:21.625Z,100306.98
2019-04-03T01:48:50.285Z,100315.63
2019-04-03T01:51:18.889Z,100304.38
2019-04-03T01:53:47.899Z,100307.84
2019-04-03T01:56:16.889Z,100303.52
2019-04-03T01:58:45.779Z,100305.23
2019-04-03T02:01:14.675Z,100308.70
2019-04-03T02:03:43.312Z,100315.64
2019-04-03T02:06:13.587Z,100317.35
2019-04-03T02:08:44.908Z,100327.31
2019-04-03T02:11:13.645Z,100321.70
2019-04-03T02:13:42.407Z,100318.67
2019-04-03T02:16:11.299Z,100317.81
2019-04-03T02:18:39.923Z,100318.25
2019-04-03T02:21:08.846Z,100323.88
2019-04-03T02:23:37.766Z,100329.48
2019-04-03T02:26:06.699Z,100334.23
2019-04-03T02:28:35.397Z,100332.94
2019-04-03T02:31:04.063Z,100331.21
2019-04-03T02:33:32.704Z,100334.66
2019-04-03T02:36:01.609Z,100326.45
2019-04-03T02:38:30.492Z,100321.69
2019-04-03T02:40:59.510Z,100316.05
2019-04-03T02:43:28.726Z,100313.47
2019-04-03T02:45:57.585Z,100316.94
2019-04-03T02:48:26.481Z,100317.35
2019-04-03T02:50:55.505Z,100319.52
2019-04-03T02:53:24.837Z,100329.01
2019-04-03T02:55:53.848Z,100328.17
2019-04-03T02:58:23.405Z,100318.64
2019-04-03T03:00:52.255Z,100322.97
2019-04-03T03:03:21.822Z,100320.38
2019-04-03T03:05:50.482Z,100324.69
2019-04-03T03:08:22.197Z,100316.02
2019-04-03T03:10:51.719Z,100311.69
2019-04-03T03:13:20.622Z,100316.45
2019-04-03T03:15:49.824Z,100319.03
2019-04-03T03:18:18.945Z,100308.66
2019-04-03T03:20:48.461Z,100303.05
2019-04-03T03:23:17.441Z,100302.16
2019-04-03T03:25:47.531Z,100298.70
2019-04-03T03:28:16.545Z,100293.50
2019-04-03T03:30:55.787Z,100297.84
2019-04-03T03:33:33.113Z,100294.79
2019-04-03T03:35:49.215Z,100299.14
2019-04-03T03:38:18.438Z,100304.34
2019-04-03T03:40:49.302Z,100301.31
2019-04-03T03:43:18.759Z,100292.66
2019-04-03T03:45:51.421Z,100287.04
2019-04-03T03:48:19.190Z,100273.64
2019-04-03T03:50:48.012Z,100261.52
2019-04-03T03:53:17.012Z,100261.08
2019-04-03T03:55:46.692Z,100251.99
2019-04-03T03:58:16.013Z,100240.31
2019-04-03T04:00:48.699Z,100225.60
2019-04-03T04:03:16.256Z,100218.67
2019-04-03T04:05:45.462Z,100242.50
2019-04-03T04:08:14.432Z,100240.33
2019-04-03T04:10:43.614Z,100234.28
2019-04-03T04:13:15.496Z,100239.48
2019-04-03T04:15:44.215Z,100247.30
2019-04-03T04:18:15.072Z,100252.08
2019-04-03T04:20:43.689Z,100253.80
2019-04-03T04:23:12.820Z,100246.87
2019-04-03T04:25:43.544Z,100252.92
2019-04-03T04:28:12.850Z,100261.56
2019-04-03T04:30:43.716Z,100273.70
2019-04-03T04:33:12.321Z,100295.74
2019-04-03T04:35:41.391Z,100293.16
2019-04-03T04:38:10.010Z,100293.60
2019-04-03T04:40:39.408Z,100290.14
2019-04-03T04:43:08.619Z,100296.62
2019-04-03T04:45:37.258Z,100294.02
2019-04-03T04:48:05.889Z,100294.87
2019-04-03T04:50:34.528Z,100293.59
2019-04-03T04:53:03.809Z,100287.52
2019-04-03T04:55:34.509Z,100292.72
2019-04-03T04:58:04.751Z,100300.92
2019-04-03T05:00:34.170Z,100312.20
2019-04-03T05:03:02.808Z,100310.46
2019-04-03T05:05:31.747Z,100315.20
2019-04-03T05:08:01.860Z,100323.86
2019-04-03T05:10:30.970Z,100335.55
2019-04-03T05:13:00.442Z,100342.47
2019-04-03T05:15:29.062Z,100338.56
2019-04-03T05:17:58.333Z,100340.74
2019-04-03T05:20:27.264Z,100348.09
2019-04-03T05:22:56.335Z,100336.83
2019-04-03T05:25:24.946Z,100342.03
2019-04-03T05:27:53.919Z,100338.56
2019-04-03T05:30:32.779Z,100336.38
2019-04-03T05:33:01.749Z,100333.36
2019-04-03T05:35:30.427Z,100336.36
2019-04-03T05:37:59.046Z,100325.14
2019-04-03T05:40:27.766Z,100319.09
2019-04-03T05:42:59.247Z,100289.64
2019-04-03T05:45:27.020Z,100328.16
2019-04-03T05:47:55.638Z,100334.20
2019-04-03T05:50:26.440Z,100329.89
2019-04-03T05:52:55.010Z,100314.30
2019-04-03T05:55:24.240Z,100337.66
2019-04-03T05:57:53.210Z,100318.63
2019-04-03T06:00:22.210Z,100345.02
2019-04-03T06:02:53.147Z,100345.47
2019-04-03T06:05:22.221Z,100343.28
2019-04-03T06:07:51.135Z,100339.81
2019-04-03T06:10:19.770Z,100349.77
2019-04-03T06:12:48.402Z,100353.64
2019-04-03T06:15:17.701Z,100361.45
2019-04-03T06:17:46.873Z,100367.92
2019-04-03T06:20:16.571Z,100374.87
2019-04-03T06:22:45.611Z,100379.61
2019-04-03T06:25:14.583Z,100378.30
2019-04-03T06:27:45.793Z,100377.84
2019-04-03T06:30:14.534Z,100383.92
2019-04-03T06:32:43.309Z,100388.23
2019-04-03T06:35:13.735Z,100389.11
2019-04-03T06:37:43.051Z,100390.39
2019-04-03T06:40:12.133Z,100392.98
2019-04-03T06:42:44.115Z,100394.27
2019-04-03T06:45:15.409Z,100392.10
2019-04-03T06:47:43.030Z,100392.51
2019-04-03T06:50:13.256Z,100392.52
2019-04-03T06:52:42.544Z,100390.37
2019-04-03T06:55:11.846Z,100391.66
2019-04-03T06:57:41.048Z,100389.91
2019-04-03T07:00:10.253Z,100398.13
2019-04-03T07:02:38.864Z,100399.87
2019-04-03T07:05:09.677Z,100401.12
2019-04-03T07:07:38.343Z,100413.28
2019-04-03T07:10:09.171Z,100405.89
2019-04-03T07:12:37.975Z,100411.09
2019-04-03T07:15:07.767Z,100406.73
2019-04-03T07:17:36.785Z,100411.05
2019-04-03T07:20:13.739Z,100420.17
2019-04-03T07:22:36.858Z,100417.56
2019-04-03T07:25:06.481Z,100417.97
2019-04-03T07:27:37.411Z,100421.44
2019-04-03T07:30:08.407Z,100420.09
2019-04-03T07:32:37.400Z,100417.06
2019-04-03T07:35:09.336Z,100408.77
2019-04-03T07:37:37.192Z,100411.79
2019-04-03T07:40:06.862Z,100414.80
2019-04-03T07:42:35.659Z,100412.19
2019-04-03T07:45:05.066Z,100417.34
2019-04-03T07:47:34.905Z,100413.05
2019-04-03T07:50:06.336Z,100426.89
2019-04-03T07:52:35.288Z,100427.72
2019-04-03T07:55:05.338Z,100419.92
2019-04-03T07:57:34.812Z,100415.12
2019-04-03T08:00:06.193Z,100412.94
2019-04-03T08:02:34.595Z,100404.62
2019-04-03T08:05:03.606Z,100427.52
2019-04-03T08:07:32.746Z,100425.81
2019-04-03T08:10:01.934Z,100415.88
2019-04-03T08:12:30.574Z,100402.38
2019-04-03T08:14:59.483Z,100406.27
2019-04-03T08:17:28.135Z,100398.02
2019-04-03T08:19:56.870Z,100401.83
2019-04-03T08:22:25.773Z,100410.05
2019-04-03T08:24:54.422Z,100395.25
2019-04-03T08:27:24.417Z,100392.48
2019-04-03T08:29:53.455Z,100390.70
2019-04-03T08:32:22.093Z,100376.24
2019-04-03T08:34:51.027Z,100372.58
2019-04-03T08:37:29.698Z,100368.48
2019-04-03T08:39:50.859Z,100383.45
2019-04-03T08:42:19.714Z,100401.48
2019-04-03T08:44:49.243Z,100402.18
2019-04-03T08:47:17.881Z,100403.32
2019-04-03T08:49:47.060Z,100409.17
2019-04-03T08:52:15.770Z,100407.27
2019-04-03T08:54:45.049Z,100401.06
2019-04-03T08:57:13.677Z,100392.45
2019-04-03T08:59:42.840Z,100387.84
2019-04-03T09:02:12.923Z,100393.72
2019-04-03T09:04:42.251Z,100392.30
2019-04-03T09:07:11.063Z,100379.34
2019-04-03T09:09:40.614Z,100384.66
2019-04-03T09:12:09.331Z,100386.83
2019-04-03T09:14:38.259Z,100392.61
2019-04-03T09:17:07.380Z,100395.36
2019-04-03T09:19:36.183Z,100403.17
2019-04-03T09:22:05.311Z,100388.75
2019-04-03T09:24:34.512Z,100389.83
2019-04-03T09:27:03.144Z,100387.25
2019-04-03T09:29:32.091Z,100386.97
2019-04-03T09:32:01.496Z,100382.23
2019-04-03T09:34:33.414Z,100381.28
2019-04-03T09:37:00.662Z,100375.25
2019-04-03T09:39:29.619Z,100369.55
2019-04-03T09:41:58.805Z,100361.92
2019-04-03T09:44:27.791Z,100357.95
2019-04-03T09:46:56.458Z,100351.60
2019-04-03T09:49:25.092Z,100353.72
2019-04-03T09:51:53.885Z,100359.67
2019-04-03T09:54:22.839Z,100351.45
2019-04-03T09:56:59.384Z,100346.23
2019-04-03T09:59:21.811Z,100338.01
2019-04-03T10:01:50.771Z,100343.92
2019-04-03T10:04:20.963Z,100340.18
2019-04-03T10:06:50.259Z,100343.42
2019-04-03T10:09:19.262Z,100330.23
2019-04-03T10:11:50.591Z,100326.69
2019-04-03T10:14:18.896Z,100323.85
2019-04-03T10:16:47.778Z,100313.13
2019-04-03T10:19:17.079Z,100310.38
2019-04-03T10:21:45.704Z,100312.17
2019-04-03T10:24:14.357Z,100307.25
2019-04-03T10:26:43.246Z,100303.11
2019-04-03T10:29:12.017Z,100314.16
2019-04-03T10:31:40.925Z,100309.83
2019-04-03T10:34:09.526Z,100312.63
2019-04-03T10:36:41.603Z,100298.19
2019-04-03T10:39:10.679Z,100295.89
2019-04-03T10:41:39.446Z,100297.53
2019-04-03T10:44:09.353Z,100293.58
2019-04-03T10:46:39.082Z,100289.03
2019-04-03T10:49:08.507Z,100291.38
2019-04-03T10:51:40.825Z,100293.12
2019-04-03T10:54:08.738Z,100295.70
2019-04-03T10:56:37.615Z,100298.16
2019-04-03T10:59:12.183Z,100294.28
2019-04-03T11:01:37.158Z,100290.28
2019-04-03T11:04:06.136Z,100290.38
2019-04-03T11:06:37.423Z,100282.69
2019-04-03T11:09:08.854Z,100277.05
2019-04-03T11:11:37.732Z,100274.53
2019-04-03T11:14:08.051Z,100272.42
2019-04-03T11:16:39.130Z,100263.47
2019-04-03T11:19:08.049Z,100264.78
2019-04-03T11:21:37.180Z,100267.73
2019-04-03T11:24:07.168Z,100259.26
2019-04-03T11:26:36.138Z,100249.81
2019-04-03T11:29:08.793Z,100246.36
2019-04-03T11:31:41.197Z,100241.52
2019-04-03T11:34:07.155Z,100240.27
2019-04-03T11:36:35.923Z,100241.30
2019-04-03T11:39:13.411Z,100239.12
2019-04-03T11:41:37.400Z,100238.20
2019-04-03T11:44:06.121Z,100238.80
2019-04-03T11:46:35.486Z,100241.83
2019-04-03T11:49:04.612Z,100237.58
2019-04-03T11:51:34.305Z,100243.63
2019-04-03T11:54:07.028Z,100239.69
2019-04-03T11:56:33.976Z,100244.20
2019-04-03T11:59:03.568Z,100239.97
2019-04-03T12:01:33.134Z,100236.91
2019-04-03T12:04:02.162Z,100243.17
2019-04-03T12:06:31.079Z,100235.89
2019-04-03T12:09:01.126Z,100241.45
2019-04-03T12:11:30.066Z,100240.66
2019-04-03T12:13:58.719Z,100231.55
2019-04-03T12:16:27.359Z,100232.45
2019-04-03T12:18:56.151Z,100233.43
2019-04-03T12:21:25.408Z,100232.57
2019-04-03T12:23:54.464Z,100228.92
2019-04-03T12:26:23.180Z,100228.31
2019-04-03T12:28:52.096Z,100227.56
2019-04-03T12:31:20.994Z,100228.17
2019-04-03T12:33:54.812Z,100226.28
2019-04-03T12:36:20.402Z,100225.98
2019-04-03T12:38:49.416Z,100227.73
2019-04-03T12:41:18.053Z,100220.56
2019-04-03T12:43:47.846Z,100218.98
2019-04-03T12:46:18.947Z,100214.34
2019-04-03T12:48:48.708Z,100220.40
2019-04-03T12:51:20.351Z,100223.02
2019-04-03T12:53:49.433Z,100217.82
2019-04-03T12:56:19.012Z,100220.32
2019-04-03T12:58:47.941Z,100212.69
2019-04-03T13:01:18.441Z,100207.48
2019-04-03T13:03:48.211Z,100209.45
2019-04-03T13:06:16.926Z,100212.75
2019-04-03T13:08:46.317Z,100205.59
2019-04-03T13:11:15.496Z,100201.69
2019-04-03T13:13:45.188Z,100200.31
2019-04-03T13:16:14.704Z,100200.94
2019-04-03T13:18:43.643Z,100194.89
2019-04-03T13:21:13.037Z,100199.30
2019-04-03T13:23:45.166Z,100196.44
2019-04-03T13:26:12.163Z,100191.77
2019-04-03T13:28:41.464Z,100199.20
2019-04-03T13:31:10.150Z,100195.67
2019-04-03T13:33:39.349Z,100196.19
2019-04-03T13:36:08.539Z,100192.45
2019-04-03T13:38:38.157Z,100187.84
2019-04-03T13:41:09.296Z,100189.28
2019-04-03T13:43:37.919Z,100183.42
2019-04-03T13:46:07.085Z,100174.83
2019-04-03T13:48:36.486Z,100173.81
2019-04-03T13:51:05.591Z,100169.78
2019-04-03T13:53:36.581Z,100160.13
2019-04-03T13:56:06.730Z,100160.78
2019-04-03T13:58:36.460Z,100157.14
2019-04-03T14:01:08.200Z,100158.77
2019-04-03T14:03:36.281Z,100155.87
2019-04-03T14:06:05.475Z,100156.20
2019-04-03T14:08:34.791Z,100148.67
2019-04-03T14:11:04.086Z,100149.53
2019-04-03T14:13:32.708Z,100149.24
2019-04-03T14:16:01.686Z,100146.12
2019-04-03T14:18:30.936Z,100146.61
2019-04-03T14:21:00.152Z,100142.39
2019-04-03T14:23:29.579Z,100136.58
2019-04-03T14:26:05.222Z,100145.36
2019-04-03T14:28:28.917Z,100142.68
2019-04-03T14:30:58.062Z,100142.22
2019-04-03T14:33:26.972Z,100132.80
2019-04-03T14:35:55.855Z,100124.53
2019-04-03T14:38:27.643Z,100122.82
2019-04-03T14:40:55.151Z,100125.94
2019-04-03T14:43:23.859Z,100126.81
2019-04-03T14:45:53.280Z,100121.50
2019-04-03T14:48:22.281Z,100121.63
2019-04-03T14:50:50.986Z,100129.06
2019-04-03T14:53:20.233Z,100124.88
2019-04-03T14:55:50.575Z,100126.75
2019-04-03T14:58:19.999Z,100127.05
2019-04-03T15:00:49.847Z,100130.70
2019-04-03T15:03:19.713Z,100130.27
2019-04-03T15:05:49.102Z,100126.86
2019-04-03T15:08:18.298Z,100121.84
2019-04-03T15:17:39.070Z,100131.59
2019-04-03T15:20:08.669Z,100125.88
2019-04-03T15:22:37.389Z,100130.09
2019-04-03T15:25:07.477Z,100127.08
2019-04-03T15:27:37.017Z,100129.67
2019-04-03T15:30:11.025Z,100123.47
2019-04-03T15:32:40.018Z,100119.79
2019-04-03T15:35:09.163Z,100117.88
2019-04-03T15:37:41.488Z,100119.84
2019-04-03T15:40:09.290Z,100111.98
2019-04-03T15:42:40.289Z,100112.23
2019-04-03T15:45:09.364Z,100108.95
2019-04-03T15:47:41.824Z,100107.23
2019-04-03T15:50:08.802Z,100107.77
2019-04-03T15:52:37.483Z,100110.45
2019-04-03T15:55:06.561Z,100115.37
2019-04-03T15:57:35.830Z,100110.52
2019-04-03T16:00:07.696Z,100107.00
2019-04-03T16:02:37.071Z,100107.95
2019-04-03T16:05:06.838Z,100104.52
2019-04-03T16:07:35.470Z,100103.28
2019-04-03T16:10:04.908Z,100103.20
2019-04-03T16:12:36.276Z,100111.48
2019-04-03T16:15:05.349Z,100106.71
2019-04-03T16:17:37.434Z,100100.45
2019-04-03T16:20:05.880Z,100100.59
2019-04-03T16:22:34.713Z,100105.27
2019-04-03T16:25:03.885Z,100094.81
2019-04-03T16:27:33.062Z,100087.98
2019-04-03T16:30:01.999Z,100085.65
2019-04-03T16:32:30.998Z,100090.33
2019-04-03T16:35:00.330Z,100091.18
2019-04-03T16:37:29.268Z,100082.62
2019-04-03T16:39:58.190Z,100085.31
2019-04-03T16:42:27.135Z,100080.00
2019-04-03T16:44:58.312Z,100076.69
2019-04-03T16:47:27.692Z,100075.16
2019-04-03T16:49:57.149Z,100069.03
2019-04-03T16:52:26.672Z,100063.75
2019-04-03T16:54:56.046Z,100072.66
2019-04-03T16:57:25.211Z,100066.09
2019-04-03T16:59:54.532Z,100056.27
2019-04-03T17:02:24.715Z,100057.63
2019-04-03T17:04:53.851Z,100053.77
2019-04-03T17:07:23.029Z,100061.34
2019-04-03T17:09:52.560Z,100067.53
2019-04-03T17:12:21.190Z,100062.27
2019-04-03T17:14:50.139Z,100060.66
2019-04-03T17:17:19.032Z,100065.26
2019-04-03T17:19:51.349Z,100061.93
2019-04-03T17:22:18.884Z,100062.23
2019-04-03T17:24:49.477Z,100061.78
2019-04-03T17:27:18.810Z,100058.05
2019-04-03T17:29:48.146Z,100056.18
2019-04-03T17:32:16.718Z,100050.88
2019-04-03T17:34:46.311Z,100052.72
2019-04-03T17:37:15.484Z,100054.77
2019-04-03T17:39:45.712Z,100056.79
2019-04-03T17:42:14.338Z,100052.16
2019-04-03T17:44:44.759Z,100050.93
2019-04-03T17:47:13.615Z,100060.72
2019-04-03T17:49:42.264Z,100059.82
2019-04-03T17:52:11.186Z,100056.85
2019-04-03T17:54:39.832Z,100058.34
2019-04-03T17:57:08.759Z,100062.48
2019-04-03T17:59:37.760Z,100060.85
2019-04-03T18:02:06.407Z,100066.98
2019-04-03T18:04:35.229Z,100062.33
2019-04-03T18:07:03.965Z,100064.05
2019-04-03T18:09:33.218Z,100062.86
2019-04-03T18:12:02.118Z,100064.66
2019-04-03T18:14:30.761Z,100054.89
2019-04-03T18:17:01.259Z,100067.84
2019-04-03T18:19:37.300Z,100058.40
2019-04-03T18:22:01.260Z,100060.80
2019-04-03T18:24:30.469Z,100056.63
2019-04-03T18:27:02.273Z,100059.91
2019-04-03T18:29:30.110Z,100056.73
2019-04-03T18:31:59.071Z,100062.52
2019-04-03T18:34:27.700Z,100062.11
2019-04-03T18:36:56.345Z,100064.13
2019-04-03T18:39:25.243Z,100061.11
2019-04-03T18:41:53.900Z,100058.19
2019-04-03T18:44:26.054Z,100060.05
2019-04-03T18:46:53.477Z,100062.70
2019-04-03T18:49:22.136Z,100064.89
2019-04-03T18:51:51.540Z,100066.20
2019-04-03T18:54:20.429Z,100068.54
2019-04-03T18:56:49.428Z,100065.92
2019-04-03T18:59:18.622Z,100067.58
2019-04-03T19:01:47.306Z,100066.00
2019-04-03T19:04:15.976Z,100067.61
2019-04-03T19:06:45.308Z,100064.92
2019-04-03T19:09:14.639Z,100072.38
2019-04-03T19:11:43.604Z,100069.90
2019-04-03T19:14:12.662Z,100060.80
2019-04-03T19:16:46.305Z,100069.20
2019-04-03T19:19:12.003Z,100058.86
2019-04-03T19:21:40.914Z,100062.67
2019-04-03T19:24:09.635Z,100059.88
2019-04-03T19:26:38.300Z,100055.58
2019-04-03T19:29:07.568Z,100054.08
2019-04-03T19:31:39.929Z,100054.94
2019-04-03T19:34:07.709Z,100051.77
2019-04-03T19:36:36.689Z,100049.61
2019-04-03T19:39:07.669Z,100050.09
2019-04-03T19:41:36.340Z,100053.45
2019-04-03T19:44:05.321Z,100048.72
2019-04-03T19:46:34.284Z,100053.56
2019-04-03T19:49:03.309Z,100047.27
2019-04-03T19:51:32.860Z,100042.42
2019-04-03T19:54:01.976Z,100045.04
2019-04-03T19:56:30.925Z,100040.40
2019-04-03T19:59:00.220Z,100039.89
2019-04-03T20:01:29.711Z,100040.12
2019-04-03T20:03:58.616Z,100038.05
2019-04-03T20:06:27.596Z,100030.34
2019-04-03T20:08:56.908Z,100038.66
2019-04-03T20:11:25.812Z,100032.70
2019-04-03T20:13:54.543Z,100036.89
2019-04-03T20:16:24.501Z,100030.02
2019-04-03T20:18:56.263Z,100025.69
2019-04-03T20:21:23.893Z,100024.30
2019-04-03T20:23:53.112Z,100018.91
2019-04-03T20:26:22.004Z,100020.50
2019-04-03T20:28:51.303Z,100023.55
2019-04-03T20:31:20.606Z,100019.59
2019-04-03T20:33:49.603Z,100016.47
2019-04-03T20:36:18.495Z,100018.24
2019-04-03T20:38:49.502Z,100019.58
2019-04-03T20:41:18.422Z,100019.25
2019-04-03T20:43:47.429Z,100022.34
2019-04-03T20:46:16.616Z,100012.81
2019-04-03T20:48:45.837Z,100013.70
2019-04-03T20:51:14.492Z,100006.41
2019-04-03T20:53:43.145Z,100007.31
2019-04-03T20:56:12.078Z,99999.89
2019-04-03T20:58:41.110Z,100002.13
2019-04-03T21:01:09.975Z,99997.42
2019-04-03T21:03:39.245Z,99995.54
2019-04-03T21:06:08.715Z,100000.83
2019-04-03T21:08:37.410Z,99994.84
2019-04-03T21:11:06.337Z,99992.52
2019-04-03T21:13:35.026Z,99988.77
2019-04-03T21:16:03.673Z,99988.27
2019-04-03T21:18:32.313Z,99993.15
2019-04-03T21:21:01.675Z,99996.59
2019-04-03T21:23:33.301Z,99989.38
2019-04-03T21:26:01.421Z,99992.86
2019-04-03T21:28:30.644Z,99981.20
2019-04-03T21:30:59.361Z,99985.54
2019-04-03T21:33:30.488Z,99979.55
2019-04-03T21:35:58.950Z,99972.70
2019-04-03T21:38:28.146Z,99970.17
2019-04-03T21:40:57.146Z,99972.25
2019-04-03T21:43:27.229Z,99968.72
2019-04-03T21:45:57.482Z,99956.14
2019-04-03T21:48:26.376Z,99962.16
2019-04-03T21:50:55.008Z,99962.16
2019-04-03T21:53:24.374Z,99944.34
2019-04-03T21:55:54.275Z,99947.75
2019-04-03T21:58:23.473Z,99939.91
2019-04-03T22:01:19.115Z,99942.94
2019-04-03T22:03:50.604Z,99946.39
2019-04-03T22:06:18.806Z,99939.83
2019-04-03T22:08:48.020Z,99935.92
2019-04-03T22:11:17.074Z,99934.27
2019-04-03T22:13:45.782Z,99934.23
2019-04-03T22:16:14.817Z,99934.15
2019-04-03T22:18:43.423Z,99917.72
2019-04-03T22:21:12.133Z,99914.20
2019-04-03T22:23:40.780Z,99914.61
2019-04-03T22:26:10.361Z,99911.09
2019-04-03T22:28:39.273Z,99909.73
2019-04-03T22:31:08.455Z,99904.16
2019-04-03T22:33:37.127Z,99911.63
2019-04-03T22:36:06.131Z,99912.89
2019-04-03T22:38:37.245Z,99916.33
2019-04-03T22:41:05.577Z,99924.23
2019-04-03T22:43:34.189Z,99920.71
2019-04-03T22:46:03.133Z,99922.95
2019-04-03T22:48:32.328Z,99920.41
2019-04-03T22:51:00.948Z,99915.20
2019-04-03T22:53:29.898Z,99915.64
2019-04-03T22:55:59.105Z,99914.45
2019-04-03T22:58:27.995Z,99916.58
2019-04-03T23:00:57.235Z,99912.59
2019-04-03T23:03:27.874Z,99916.58
2019-04-03T23:05:56.830Z,99922.27
2019-04-03T23:08:25.455Z,99930.02
2019-04-03T23:10:54.406Z,99926.14
2019-04-03T23:13:23.393Z,99927.08
2019-04-03T23:15:52.386Z,99928.36
2019-04-03T23:18:21.278Z,99932.73
2019-04-03T23:20:52.524Z,99918.88
2019-04-03T23:23:20.347Z,99921.06
2019-04-03T23:25:48.974Z,99918.19
2019-04-03T23:28:18.176Z,99913.86
2019-04-03T23:30:47.089Z,99915.21
2019-04-03T23:33:17.632Z,99916.56
2019-04-03T23:35:46.359Z,99902.45
2019-04-03T23:38:15.039Z,99900.39
2019-04-03T23:40:43.944Z,99902.65
2019-04-03T23:43:12.565Z,99902.13
2019-04-03T23:45:43.548Z,99894.77
2019-04-03T23:48:11.891Z,99887.48
2019-04-03T23:50:40.845Z,99885.02
2019-04-03T23:53:09.851Z,99891.14
2019-04-03T23:55:38.743Z,99883.77
2019-04-03T23:58:10.630Z,99876.88
